sensor_id;sensor_type;location;lat;lon;timestamp;P1;durP1;ratioP1;P2;durP2;ratioP2
4278;SDS011;2153;47.744;10.580;2023-09-19T00:00:05;12.00;;;1.80;;
4278;SDS011;2153;47.744;10.580;2023-09-19T00:02:33;15.80;;;2.00;;
4278;SDS011;2153;47.744;10.580;2023-09-19T00:05:01;14.23;;;1.77;;
4278;SDS011;2153;47.744;10.580;2023-09-19T00:07:28;12.80;;;1.73;;
4278;SDS011;2153;47.744;10.580;2023-09-19T00:09:55;12.00;;;1.80;;
4278;SDS011;2153;47.744;10.580;2023-09-19T00:12:22;21.50;;;1.80;;
4278;SDS011;2153;47.744;10.580;2023-09-19T00:14:50;18.00;;;2.03;;
4278;SDS011;2153;47.744;10.580;2023-09-19T00:17:17;17.13;;;1.90;;
4278;SDS011;2153;47.744;10.580;2023-09-19T00:19:44;11.83;;;1.63;;
4278;SDS011;2153;47.744;10.580;2023-09-19T00:22:11;13.20;;;1.80;;
4278;SDS011;2153;47.744;10.580;2023-09-19T00:24:40;12.03;;;1.67;;
4278;SDS011;2153;47.744;10.580;2023-09-19T00:27:07;12.37;;;2.03;;
4278;SDS011;2153;47.744;10.580;2023-09-19T00:29:34;12.20;;;1.90;;
4278;SDS011;2153;47.744;10.580;2023-09-19T00:32:02;14.77;;;1.60;;
4278;SDS011;2153;47.744;10.580;2023-09-19T00:34:30;13.70;;;2.37;;
4278;SDS011;2153;47.744;10.580;2023-09-19T00:36:59;14.63;;;2.10;;
4278;SDS011;2153;47.744;10.580;2023-09-19T00:39:26;18.73;;;2.03;;
4278;SDS011;2153;47.744;10.580;2023-09-19T00:41:52;11.27;;;1.20;;
4278;SDS011;2153;47.744;10.580;2023-09-19T00:44:19;14.63;;;1.83;;
4278;SDS011;2153;47.744;10.580;2023-09-19T00:46:48;13.03;;;1.70;;
4278;SDS011;2153;47.744;10.580;2023-09-19T00:49:16;14.57;;;1.93;;
4278;SDS011;2153;47.744;10.580;2023-09-19T00:51:47;13.50;;;1.73;;
4278;SDS011;2153;47.744;10.580;2023-09-19T00:54:14;12.17;;;1.70;;
4278;SDS011;2153;47.744;10.580;2023-09-19T00:56:43;11.67;;;1.80;;
4278;SDS011;2153;47.744;10.580;2023-09-19T00:59:11;15.70;;;1.93;;
4278;SDS011;2153;47.744;10.580;2023-09-19T01:01:38;11.27;;;1.40;;
4278;SDS011;2153;47.744;10.580;2023-09-19T01:04:05;12.80;;;1.80;;
4278;SDS011;2153;47.744;10.580;2023-09-19T01:06:34;13.80;;;2.03;;
4278;SDS011;2153;47.744;10.580;2023-09-19T01:09:01;12.03;;;1.43;;
4278;SDS011;2153;47.744;10.580;2023-09-19T01:11:32;13.23;;;1.87;;
4278;SDS011;2153;47.744;10.580;2023-09-19T01:14:06;12.60;;;2.03;;
4278;SDS011;2153;47.744;10.580;2023-09-19T01:16:43;16.40;;;1.83;;
4278;SDS011;2153;47.744;10.580;2023-09-19T01:22:28;12.87;;;1.70;;
4278;SDS011;2153;47.744;10.580;2023-09-19T01:28:32;11.90;;;1.60;;
4278;SDS011;2153;47.744;10.580;2023-09-19T01:31:06;11.80;;;1.70;;
4278;SDS011;2153;47.744;10.580;2023-09-19T01:33:55;14.10;;;1.80;;
4278;SDS011;2153;47.744;10.580;2023-09-19T01:36:25;12.37;;;1.80;;
4278;SDS011;2153;47.744;10.580;2023-09-19T01:38:55;12.60;;;1.90;;
4278;SDS011;2153;47.744;10.580;2023-09-19T01:41:26;12.57;;;2.00;;
4278;SDS011;2153;47.744;10.580;2023-09-19T01:44:00;22.37;;;2.80;;
4278;SDS011;2153;47.744;10.580;2023-09-19T01:46:34;14.00;;;1.93;;
4278;SDS011;2153;47.744;10.580;2023-09-19T01:49:08;15.43;;;2.27;;
4278;SDS011;2153;47.744;10.580;2023-09-19T01:51:46;14.40;;;1.87;;
4278;SDS011;2153;47.744;10.580;2023-09-19T01:54:24;14.50;;;2.07;;
4278;SDS011;2153;47.744;10.580;2023-09-19T01:56:55;13.17;;;2.13;;
4278;SDS011;2153;47.744;10.580;2023-09-19T01:59:28;13.70;;;2.23;;
4278;SDS011;2153;47.744;10.580;2023-09-19T02:02:03;11.80;;;1.90;;
4278;SDS011;2153;47.744;10.580;2023-09-19T02:04:32;11.77;;;1.60;;
4278;SDS011;2153;47.744;10.580;2023-09-19T02:06:59;13.40;;;1.83;;
4278;SDS011;2153;47.744;10.580;2023-09-19T02:09:27;13.70;;;1.50;;
4278;SDS011;2153;47.744;10.580;2023-09-19T02:11:54;13.43;;;2.53;;
4278;SDS011;2153;47.744;10.580;2023-09-19T02:14:21;13.83;;;1.97;;
4278;SDS011;2153;47.744;10.580;2023-09-19T02:16:48;13.70;;;1.80;;
4278;SDS011;2153;47.744;10.580;2023-09-19T02:19:16;12.57;;;1.83;;
4278;SDS011;2153;47.744;10.580;2023-09-19T02:21:43;14.90;;;1.70;;
4278;SDS011;2153;47.744;10.580;2023-09-19T02:24:10;11.80;;;1.70;;
4278;SDS011;2153;47.744;10.580;2023-09-19T02:26:37;14.83;;;2.33;;
4278;SDS011;2153;47.744;10.580;2023-09-19T02:29:04;12.83;;;2.13;;
4278;SDS011;2153;47.744;10.580;2023-09-19T02:31:31;15.07;;;2.03;;
4278;SDS011;2153;47.744;10.580;2023-09-19T02:33:57;11.77;;;1.60;;
4278;SDS011;2153;47.744;10.580;2023-09-19T02:36:26;12.33;;;1.70;;
4278;SDS011;2153;47.744;10.580;2023-09-19T02:38:53;11.70;;;1.60;;
4278;SDS011;2153;47.744;10.580;2023-09-19T02:41:19;11.60;;;1.67;;
4278;SDS011;2153;47.744;10.580;2023-09-19T02:43:46;12.23;;;1.30;;
4278;SDS011;2153;47.744;10.580;2023-09-19T02:46:13;14.37;;;1.50;;
4278;SDS011;2153;47.744;10.580;2023-09-19T02:48:42;11.80;;;1.40;;
4278;SDS011;2153;47.744;10.580;2023-09-19T02:51:08;12.63;;;1.60;;
4278;SDS011;2153;47.744;10.580;2023-09-19T02:53:37;11.40;;;1.50;;
4278;SDS011;2153;47.744;10.580;2023-09-19T02:56:03;12.87;;;1.20;;
4278;SDS011;2153;47.744;10.580;2023-09-19T02:58:30;15.07;;;1.50;;
4278;SDS011;2153;47.744;10.580;2023-09-19T03:01:07;12.17;;;1.40;;
4278;SDS011;2153;47.744;10.580;2023-09-19T03:03:34;18.13;;;1.60;;
4278;SDS011;2153;47.744;10.580;2023-09-19T03:06:02;12.27;;;1.70;;
4278;SDS011;2153;47.744;10.580;2023-09-19T03:08:29;13.80;;;1.60;;
4278;SDS011;2153;47.744;10.580;2023-09-19T03:10:57;11.03;;;1.10;;
4278;SDS011;2153;47.744;10.580;2023-09-19T03:13:25;13.00;;;2.20;;
4278;SDS011;2153;47.744;10.580;2023-09-19T03:15:54;11.97;;;1.40;;
4278;SDS011;2153;47.744;10.580;2023-09-19T03:18:21;11.17;;;1.20;;
4278;SDS011;2153;47.744;10.580;2023-09-19T03:20:52;11.57;;;1.30;;
4278;SDS011;2153;47.744;10.580;2023-09-19T03:23:19;11.90;;;1.50;;
4278;SDS011;2153;47.744;10.580;2023-09-19T03:25:46;16.43;;;1.47;;
4278;SDS011;2153;47.744;10.580;2023-09-19T03:28:14;12.40;;;1.50;;
4278;SDS011;2153;47.744;10.580;2023-09-19T03:30:41;12.50;;;1.33;;
4278;SDS011;2153;47.744;10.580;2023-09-19T03:33:08;11.40;;;1.50;;
4278;SDS011;2153;47.744;10.580;2023-09-19T03:35:37;10.77;;;1.10;;
4278;SDS011;2153;47.744;10.580;2023-09-19T03:38:04;11.60;;;1.70;;
4278;SDS011;2153;47.744;10.580;2023-09-19T03:40:31;14.17;;;1.30;;
4278;SDS011;2153;47.744;10.580;2023-09-19T03:43:00;11.50;;;1.50;;
4278;SDS011;2153;47.744;10.580;2023-09-19T03:45:28;11.53;;;1.50;;
4278;SDS011;2153;47.744;10.580;2023-09-19T03:47:55;11.50;;;1.47;;
4278;SDS011;2153;47.744;10.580;2023-09-19T03:50:22;11.17;;;1.30;;
4278;SDS011;2153;47.744;10.580;2023-09-19T03:52:49;12.10;;;1.50;;
4278;SDS011;2153;47.744;10.580;2023-09-19T03:55:15;12.73;;;1.60;;
4278;SDS011;2153;47.744;10.580;2023-09-19T03:57:42;11.70;;;1.50;;
4278;SDS011;2153;47.744;10.580;2023-09-19T04:00:14;14.00;;;1.53;;
4278;SDS011;2153;47.744;10.580;2023-09-19T04:02:47;12.10;;;1.40;;
4278;SDS011;2153;47.744;10.580;2023-09-19T04:05:14;11.70;;;1.43;;
4278;SDS011;2153;47.744;10.580;2023-09-19T04:07:41;11.43;;;1.50;;
4278;SDS011;2153;47.744;10.580;2023-09-19T04:10:08;10.90;;;1.20;;
4278;SDS011;2153;47.744;10.580;2023-09-19T04:12:36;14.17;;;1.30;;
4278;SDS011;2153;47.744;10.580;2023-09-19T04:15:03;12.43;;;1.73;;
4278;SDS011;2153;47.744;10.580;2023-09-19T04:17:31;12.70;;;1.73;;
4278;SDS011;2153;47.744;10.580;2023-09-19T04:19:59;11.50;;;1.33;;
4278;SDS011;2153;47.744;10.580;2023-09-19T04:22:26;13.63;;;1.57;;
4278;SDS011;2153;47.744;10.580;2023-09-19T04:24:53;10.90;;;1.23;;
4278;SDS011;2153;47.744;10.580;2023-09-19T04:27:19;11.73;;;1.57;;
4278;SDS011;2153;47.744;10.580;2023-09-19T04:29:46;11.40;;;1.20;;
4278;SDS011;2153;47.744;10.580;2023-09-19T04:32:13;11.70;;;1.40;;
4278;SDS011;2153;47.744;10.580;2023-09-19T04:34:40;11.60;;;1.40;;
4278;SDS011;2153;47.744;10.580;2023-09-19T04:37:09;12.20;;;1.77;;
4278;SDS011;2153;47.744;10.580;2023-09-19T04:39:36;11.07;;;1.20;;
4278;SDS011;2153;47.744;10.580;2023-09-19T04:42:03;15.53;;;1.60;;
4278;SDS011;2153;47.744;10.580;2023-09-19T04:44:31;12.83;;;1.10;;
4278;SDS011;2153;47.744;10.580;2023-09-19T04:46:57;12.20;;;1.40;;
4278;SDS011;2153;47.744;10.580;2023-09-19T04:49:24;14.30;;;1.40;;
4278;SDS011;2153;47.744;10.580;2023-09-19T04:51:51;14.27;;;2.03;;
4278;SDS011;2153;47.744;10.580;2023-09-19T04:54:19;11.60;;;1.50;;
4278;SDS011;2153;47.744;10.580;2023-09-19T04:56:47;12.90;;;1.50;;
4278;SDS011;2153;47.744;10.580;2023-09-19T04:59:14;11.00;;;1.10;;
4278;SDS011;2153;47.744;10.580;2023-09-19T05:01:40;11.60;;;1.33;;
4278;SDS011;2153;47.744;10.580;2023-09-19T05:04:07;11.20;;;1.40;;
4278;SDS011;2153;47.744;10.580;2023-09-19T05:06:34;11.73;;;1.57;;
4278;SDS011;2153;47.744;10.580;2023-09-19T05:09:01;11.83;;;1.60;;
4278;SDS011;2153;47.744;10.580;2023-09-19T05:11:31;12.30;;;1.50;;
4278;SDS011;2153;47.744;10.580;2023-09-19T05:13:59;11.40;;;1.60;;
4278;SDS011;2153;47.744;10.580;2023-09-19T05:16:28;16.63;;;1.40;;
4278;SDS011;2153;47.744;10.580;2023-09-19T05:18:56;12.40;;;1.47;;
4278;SDS011;2153;47.744;10.580;2023-09-19T05:21:23;12.63;;;1.10;;
4278;SDS011;2153;47.744;10.580;2023-09-19T05:23:51;12.17;;;1.40;;
4278;SDS011;2153;47.744;10.580;2023-09-19T05:26:18;12.60;;;1.30;;
4278;SDS011;2153;47.744;10.580;2023-09-19T05:28:47;13.53;;;1.47;;
4278;SDS011;2153;47.744;10.580;2023-09-19T05:31:14;11.80;;;1.37;;
4278;SDS011;2153;47.744;10.580;2023-09-19T05:33:41;12.53;;;1.70;;
4278;SDS011;2153;47.744;10.580;2023-09-19T05:36:08;12.70;;;1.47;;
4278;SDS011;2153;47.744;10.580;2023-09-19T05:38:37;12.27;;;1.20;;
4278;SDS011;2153;47.744;10.580;2023-09-19T05:41:05;13.77;;;2.00;;
4278;SDS011;2153;47.744;10.580;2023-09-19T05:43:33;11.87;;;1.63;;
4278;SDS011;2153;47.744;10.580;2023-09-19T05:46:03;12.20;;;1.57;;
4278;SDS011;2153;47.744;10.580;2023-09-19T05:48:30;15.63;;;1.40;;
4278;SDS011;2153;47.744;10.580;2023-09-19T05:50:57;16.40;;;1.43;;
4278;SDS011;2153;47.744;10.580;2023-09-19T05:53:25;11.40;;;1.40;;
4278;SDS011;2153;47.744;10.580;2023-09-19T05:55:53;10.97;;;1.30;;
4278;SDS011;2153;47.744;10.580;2023-09-19T05:58:20;11.50;;;1.27;;
4278;SDS011;2153;47.744;10.580;2023-09-19T06:00:47;11.40;;;1.40;;
4278;SDS011;2153;47.744;10.580;2023-09-19T06:03:15;12.10;;;1.80;;
4278;SDS011;2153;47.744;10.580;2023-09-19T06:05:44;12.10;;;1.30;;
4278;SDS011;2153;47.744;10.580;2023-09-19T06:08:11;11.97;;;1.43;;
4278;SDS011;2153;47.744;10.580;2023-09-19T06:10:37;12.17;;;1.70;;
4278;SDS011;2153;47.744;10.580;2023-09-19T06:13:05;11.50;;;1.70;;
4278;SDS011;2153;47.744;10.580;2023-09-19T06:15:34;12.40;;;1.80;;
4278;SDS011;2153;47.744;10.580;2023-09-19T06:18:01;12.23;;;1.47;;
4278;SDS011;2153;47.744;10.580;2023-09-19T06:20:31;14.07;;;1.57;;
4278;SDS011;2153;47.744;10.580;2023-09-19T06:22:58;11.80;;;1.30;;
4278;SDS011;2153;47.744;10.580;2023-09-19T06:25:26;13.03;;;1.47;;
4278;SDS011;2153;47.744;10.580;2023-09-19T06:27:53;11.43;;;1.30;;
4278;SDS011;2153;47.744;10.580;2023-09-19T06:30:21;11.53;;;1.40;;
4278;SDS011;2153;47.744;10.580;2023-09-19T06:32:54;12.70;;;1.40;;
4278;SDS011;2153;47.744;10.580;2023-09-19T06:35:21;11.47;;;1.13;;
4278;SDS011;2153;47.744;10.580;2023-09-19T06:37:50;12.33;;;1.40;;
4278;SDS011;2153;47.744;10.580;2023-09-19T06:40:17;12.87;;;1.93;;
4278;SDS011;2153;47.744;10.580;2023-09-19T06:42:45;11.83;;;1.03;;
4278;SDS011;2153;47.744;10.580;2023-09-19T06:45:13;12.30;;;1.30;;
4278;SDS011;2153;47.744;10.580;2023-09-19T06:47:43;12.00;;;1.60;;
4278;SDS011;2153;47.744;10.580;2023-09-19T06:50:10;14.20;;;1.57;;
4278;SDS011;2153;47.744;10.580;2023-09-19T06:52:38;11.60;;;1.30;;
4278;SDS011;2153;47.744;10.580;2023-09-19T06:55:07;10.93;;;1.10;;
4278;SDS011;2153;47.744;10.580;2023-09-19T06:57:34;11.97;;;1.50;;
4278;SDS011;2153;47.744;10.580;2023-09-19T07:00:01;11.87;;;1.20;;
4278;SDS011;2153;47.744;10.580;2023-09-19T07:02:33;12.63;;;1.40;;
4278;SDS011;2153;47.744;10.580;2023-09-19T07:05:00;11.40;;;1.17;;
4278;SDS011;2153;47.744;10.580;2023-09-19T07:07:27;11.33;;;1.30;;
4278;SDS011;2153;47.744;10.580;2023-09-19T07:09:54;12.50;;;1.20;;
4278;SDS011;2153;47.744;10.580;2023-09-19T07:12:23;12.53;;;1.77;;
4278;SDS011;2153;47.744;10.580;2023-09-19T07:14:49;11.97;;;1.00;;
4278;SDS011;2153;47.744;10.580;2023-09-19T07:17:16;12.27;;;1.30;;
4278;SDS011;2153;47.744;10.580;2023-09-19T07:19:44;11.63;;;1.20;;
4278;SDS011;2153;47.744;10.580;2023-09-19T07:22:10;11.13;;;1.33;;
4278;SDS011;2153;47.744;10.580;2023-09-19T07:24:38;12.90;;;1.50;;
4278;SDS011;2153;47.744;10.580;2023-09-19T07:27:04;14.67;;;1.00;;
4278;SDS011;2153;47.744;10.580;2023-09-19T07:29:33;11.60;;;1.30;;
4278;SDS011;2153;47.744;10.580;2023-09-19T07:31:59;12.50;;;0.87;;
4278;SDS011;2153;47.744;10.580;2023-09-19T07:34:26;11.70;;;1.57;;
4278;SDS011;2153;47.744;10.580;2023-09-19T07:36:53;11.13;;;1.10;;
4278;SDS011;2153;47.744;10.580;2023-09-19T07:39:19;11.80;;;1.00;;
4278;SDS011;2153;47.744;10.580;2023-09-19T07:41:46;11.33;;;1.10;;
4278;SDS011;2153;47.744;10.580;2023-09-19T07:44:13;11.47;;;1.10;;
4278;SDS011;2153;47.744;10.580;2023-09-19T07:46:41;11.43;;;1.30;;
4278;SDS011;2153;47.744;10.580;2023-09-19T07:49:09;11.77;;;0.90;;
4278;SDS011;2153;47.744;10.580;2023-09-19T07:51:36;12.00;;;1.20;;
4278;SDS011;2153;47.744;10.580;2023-09-19T07:54:03;11.30;;;1.23;;
4278;SDS011;2153;47.744;10.580;2023-09-19T07:56:31;11.37;;;1.10;;
4278;SDS011;2153;47.744;10.580;2023-09-19T07:58:57;11.60;;;1.20;;
4278;SDS011;2153;47.744;10.580;2023-09-19T08:01:24;12.83;;;1.07;;
4278;SDS011;2153;47.744;10.580;2023-09-19T08:03:53;10.80;;;1.00;;
4278;SDS011;2153;47.744;10.580;2023-09-19T08:06:20;10.80;;;1.00;;
4278;SDS011;2153;47.744;10.580;2023-09-19T08:08:47;11.67;;;1.20;;
4278;SDS011;2153;47.744;10.580;2023-09-19T08:11:18;11.07;;;1.10;;
4278;SDS011;2153;47.744;10.580;2023-09-19T08:13:46;11.30;;;1.00;;
4278;SDS011;2153;47.744;10.580;2023-09-19T08:16:13;11.27;;;1.10;;
4278;SDS011;2153;47.744;10.580;2023-09-19T08:18:41;13.73;;;1.20;;
4278;SDS011;2153;47.744;10.580;2023-09-19T08:21:11;12.10;;;1.17;;
4278;SDS011;2153;47.744;10.580;2023-09-19T08:23:39;11.40;;;1.03;;
4278;SDS011;2153;47.744;10.580;2023-09-19T08:26:07;11.20;;;1.20;;
4278;SDS011;2153;47.744;10.580;2023-09-19T08:28:33;11.87;;;1.00;;
4278;SDS011;2153;47.744;10.580;2023-09-19T08:31:03;10.67;;;0.90;;
4278;SDS011;2153;47.744;10.580;2023-09-19T08:33:31;12.87;;;1.30;;
4278;SDS011;2153;47.744;10.580;2023-09-19T08:35:58;16.77;;;1.20;;
4278;SDS011;2153;47.744;10.580;2023-09-19T08:38:26;11.30;;;1.10;;
4278;SDS011;2153;47.744;10.580;2023-09-19T08:40:56;11.37;;;1.10;;
4278;SDS011;2153;47.744;10.580;2023-09-19T08:43:24;12.70;;;1.37;;
4278;SDS011;2153;47.744;10.580;2023-09-19T08:45:51;13.10;;;1.50;;
4278;SDS011;2153;47.744;10.580;2023-09-19T08:48:24;11.20;;;1.10;;
4278;SDS011;2153;47.744;10.580;2023-09-19T08:50:56;13.10;;;1.43;;
4278;SDS011;2153;47.744;10.580;2023-09-19T08:53:31;12.20;;;1.20;;
4278;SDS011;2153;47.744;10.580;2023-09-19T08:56:07;12.27;;;1.33;;
4278;SDS011;2153;47.744;10.580;2023-09-19T08:58:39;12.00;;;1.23;;
4278;SDS011;2153;47.744;10.580;2023-09-19T09:01:12;12.07;;;1.17;;
4278;SDS011;2153;47.744;10.580;2023-09-19T09:03:41;12.10;;;1.10;;
4278;SDS011;2153;47.744;10.580;2023-09-19T09:06:11;12.57;;;1.00;;
4278;SDS011;2153;47.744;10.580;2023-09-19T09:08:42;11.07;;;1.07;;
4278;SDS011;2153;47.744;10.580;2023-09-19T09:11:09;13.57;;;1.27;;
4278;SDS011;2153;47.744;10.580;2023-09-19T09:13:37;12.90;;;1.50;;
4278;SDS011;2153;47.744;10.580;2023-09-19T09:16:04;12.90;;;1.30;;
4278;SDS011;2153;47.744;10.580;2023-09-19T09:18:30;11.80;;;1.10;;
4278;SDS011;2153;47.744;10.580;2023-09-19T09:20:57;11.83;;;1.47;;
4278;SDS011;2153;47.744;10.580;2023-09-19T09:23:24;12.33;;;1.43;;
4278;SDS011;2153;47.744;10.580;2023-09-19T09:25:56;12.10;;;1.20;;
4278;SDS011;2153;47.744;10.580;2023-09-19T09:28:27;11.30;;;1.20;;
4278;SDS011;2153;47.744;10.580;2023-09-19T09:30:55;12.63;;;1.53;;
4278;SDS011;2153;47.744;10.580;2023-09-19T09:33:23;12.37;;;1.60;;
4278;SDS011;2153;47.744;10.580;2023-09-19T09:35:50;13.97;;;1.40;;
4278;SDS011;2153;47.744;10.580;2023-09-19T09:38:22;12.27;;;1.30;;
4278;SDS011;2153;47.744;10.580;2023-09-19T09:40:53;23.03;;;1.50;;
4278;SDS011;2153;47.744;10.580;2023-09-19T09:43:31;13.50;;;1.33;;
4278;SDS011;2153;47.744;10.580;2023-09-19T09:46:08;13.80;;;1.50;;
4278;SDS011;2153;47.744;10.580;2023-09-19T09:49:01;14.10;;;1.60;;
4278;SDS011;2153;47.744;10.580;2023-09-19T09:51:45;12.10;;;1.50;;
4278;SDS011;2153;47.744;10.580;2023-09-19T09:54:22;12.40;;;1.53;;
4278;SDS011;2153;47.744;10.580;2023-09-19T09:56:52;12.03;;;1.20;;
4278;SDS011;2153;47.744;10.580;2023-09-19T09:59:36;11.10;;;1.10;;
4278;SDS011;2153;47.744;10.580;2023-09-19T10:02:12;13.77;;;1.70;;
4278;SDS011;2153;47.744;10.580;2023-09-19T10:04:40;14.80;;;1.47;;
4278;SDS011;2153;47.744;10.580;2023-09-19T10:07:23;12.17;;;1.30;;
4278;SDS011;2153;47.744;10.580;2023-09-19T10:09:52;11.73;;;1.30;;
4278;SDS011;2153;47.744;10.580;2023-09-19T10:12:24;11.30;;;1.13;;
4278;SDS011;2153;47.744;10.580;2023-09-19T10:14:55;11.70;;;1.10;;
4278;SDS011;2153;47.744;10.580;2023-09-19T10:17:26;11.87;;;1.50;;
4278;SDS011;2153;47.744;10.580;2023-09-19T10:19:55;12.80;;;1.30;;
4278;SDS011;2153;47.744;10.580;2023-09-19T10:22:23;12.27;;;1.40;;
4278;SDS011;2153;47.744;10.580;2023-09-19T10:24:52;12.50;;;1.70;;
4278;SDS011;2153;47.744;10.580;2023-09-19T10:27:20;12.23;;;1.60;;
4278;SDS011;2153;47.744;10.580;2023-09-19T10:29:51;16.53;;;1.63;;
4278;SDS011;2153;47.744;10.580;2023-09-19T10:32:21;12.20;;;1.40;;
4278;SDS011;2153;47.744;10.580;2023-09-19T10:34:49;12.70;;;2.30;;
4278;SDS011;2153;47.744;10.580;2023-09-19T10:37:16;12.97;;;1.40;;
4278;SDS011;2153;47.744;10.580;2023-09-19T10:39:45;13.43;;;1.47;;
4278;SDS011;2153;47.744;10.580;2023-09-19T10:42:14;11.40;;;1.30;;
4278;SDS011;2153;47.744;10.580;2023-09-19T10:44:47;12.27;;;1.40;;
4278;SDS011;2153;47.744;10.580;2023-09-19T10:47:18;12.10;;;1.57;;
4278;SDS011;2153;47.744;10.580;2023-09-19T10:49:46;12.87;;;1.50;;
4278;SDS011;2153;47.744;10.580;2023-09-19T10:52:13;11.50;;;1.00;;
4278;SDS011;2153;47.744;10.580;2023-09-19T10:54:45;12.70;;;1.40;;
4278;SDS011;2153;47.744;10.580;2023-09-19T10:57:18;12.00;;;1.30;;
4278;SDS011;2153;47.744;10.580;2023-09-19T11:00:00;13.60;;;1.30;;
4278;SDS011;2153;47.744;10.580;2023-09-19T11:02:31;12.40;;;1.50;;
4278;SDS011;2153;47.744;10.580;2023-09-19T11:05:11;11.80;;;1.30;;
4278;SDS011;2153;47.744;10.580;2023-09-19T11:13:23;14.30;;;1.60;;
4278;SDS011;2153;47.744;10.580;2023-09-19T11:18:51;11.53;;;1.10;;
4278;SDS011;2153;47.744;10.580;2023-09-19T11:24:31;12.30;;;1.33;;
4278;SDS011;2153;47.744;10.580;2023-09-19T11:27:11;12.73;;;1.33;;
4278;SDS011;2153;47.744;10.580;2023-09-19T11:29:39;12.57;;;1.30;;
4278;SDS011;2153;47.744;10.580;2023-09-19T11:32:06;12.40;;;1.63;;
4278;SDS011;2153;47.744;10.580;2023-09-19T11:34:41;13.10;;;1.50;;
4278;SDS011;2153;47.744;10.580;2023-09-19T11:40:29;13.53;;;1.23;;
4278;SDS011;2153;47.744;10.580;2023-09-19T11:42:55;14.93;;;1.60;;
4278;SDS011;2153;47.744;10.580;2023-09-19T11:48:24;11.87;;;1.30;;
4278;SDS011;2153;47.744;10.580;2023-09-19T11:50:52;12.60;;;1.50;;
4278;SDS011;2153;47.744;10.580;2023-09-19T11:53:19;12.40;;;1.40;;
4278;SDS011;2153;47.744;10.580;2023-09-19T11:55:48;13.53;;;1.00;;
4278;SDS011;2153;47.744;10.580;2023-09-19T11:58:15;11.67;;;1.33;;
4278;SDS011;2153;47.744;10.580;2023-09-19T12:00:43;11.67;;;1.00;;
4278;SDS011;2153;47.744;10.580;2023-09-19T12:03:12;12.50;;;1.13;;
4278;SDS011;2153;47.744;10.580;2023-09-19T12:05:39;12.50;;;1.13;;
4278;SDS011;2153;47.744;10.580;2023-09-19T12:08:06;11.27;;;1.23;;
4278;SDS011;2153;47.744;10.580;2023-09-19T12:10:44;11.37;;;1.03;;
4278;SDS011;2153;47.744;10.580;2023-09-19T12:13:16;14.10;;;1.30;;
4278;SDS011;2153;47.744;10.580;2023-09-19T12:15:43;11.27;;;1.10;;
4278;SDS011;2153;47.744;10.580;2023-09-19T12:18:25;12.10;;;1.33;;
4278;SDS011;2153;47.744;10.580;2023-09-19T12:20:53;19.43;;;1.40;;
4278;SDS011;2153;47.744;10.580;2023-09-19T12:23:20;14.50;;;1.43;;
4278;SDS011;2153;47.744;10.580;2023-09-19T12:25:46;11.17;;;1.10;;
4278;SDS011;2153;47.744;10.580;2023-09-19T12:28:18;11.40;;;0.97;;
4278;SDS011;2153;47.744;10.580;2023-09-19T12:30:46;12.27;;;1.13;;
4278;SDS011;2153;47.744;10.580;2023-09-19T12:33:17;11.77;;;1.30;;
4278;SDS011;2153;47.744;10.580;2023-09-19T12:35:46;12.30;;;1.37;;
4278;SDS011;2153;47.744;10.580;2023-09-19T12:38:22;12.77;;;1.23;;
4278;SDS011;2153;47.744;10.580;2023-09-19T12:40:49;10.80;;;0.93;;
4278;SDS011;2153;47.744;10.580;2023-09-19T12:43:19;12.97;;;1.33;;
4278;SDS011;2153;47.744;10.580;2023-09-19T12:45:46;11.40;;;1.23;;
4278;SDS011;2153;47.744;10.580;2023-09-19T12:48:20;12.20;;;1.27;;
4278;SDS011;2153;47.744;10.580;2023-09-19T12:51:03;11.40;;;1.10;;
4278;SDS011;2153;47.744;10.580;2023-09-19T12:53:32;15.97;;;1.00;;
4278;SDS011;2153;47.744;10.580;2023-09-19T12:56:03;13.03;;;1.10;;
4278;SDS011;2153;47.744;10.580;2023-09-19T12:58:34;11.73;;;1.30;;
4278;SDS011;2153;47.744;10.580;2023-09-19T13:01:14;12.07;;;1.23;;
4278;SDS011;2153;47.744;10.580;2023-09-19T13:03:41;19.93;;;1.30;;
4278;SDS011;2153;47.744;10.580;2023-09-19T13:06:08;12.50;;;1.20;;
4278;SDS011;2153;47.744;10.580;2023-09-19T13:08:35;10.77;;;0.80;;
4278;SDS011;2153;47.744;10.580;2023-09-19T13:11:04;11.60;;;1.03;;
4278;SDS011;2153;47.744;10.580;2023-09-19T13:13:36;11.30;;;1.20;;
4278;SDS011;2153;47.744;10.580;2023-09-19T13:16:03;15.10;;;1.13;;
4278;SDS011;2153;47.744;10.580;2023-09-19T13:18:41;11.60;;;1.00;;
4278;SDS011;2153;47.744;10.580;2023-09-19T13:21:10;11.20;;;0.90;;
4278;SDS011;2153;47.744;10.580;2023-09-19T13:23:47;13.23;;;0.90;;
4278;SDS011;2153;47.744;10.580;2023-09-19T13:26:14;12.53;;;1.33;;
4278;SDS011;2153;47.744;10.580;2023-09-19T13:28:42;11.57;;;1.00;;
4278;SDS011;2153;47.744;10.580;2023-09-19T13:31:09;13.27;;;1.40;;
4278;SDS011;2153;47.744;10.580;2023-09-19T13:33:42;11.70;;;1.40;;
4278;SDS011;2153;47.744;10.580;2023-09-19T13:36:09;13.47;;;1.20;;
4278;SDS011;2153;47.744;10.580;2023-09-19T13:38:36;10.90;;;0.90;;
4278;SDS011;2153;47.744;10.580;2023-09-19T13:41:03;13.60;;;1.30;;
4278;SDS011;2153;47.744;10.580;2023-09-19T13:43:31;10.90;;;0.80;;
4278;SDS011;2153;47.744;10.580;2023-09-19T13:45:59;11.40;;;1.00;;
4278;SDS011;2153;47.744;10.580;2023-09-19T13:48:26;11.23;;;0.90;;
4278;SDS011;2153;47.744;10.580;2023-09-19T13:50:54;12.60;;;0.97;;
4278;SDS011;2153;47.744;10.580;2023-09-19T13:53:21;11.87;;;0.87;;
4278;SDS011;2153;47.744;10.580;2023-09-19T13:55:48;12.27;;;0.90;;
4278;SDS011;2153;47.744;10.580;2023-09-19T13:58:15;11.00;;;0.97;;
4278;SDS011;2153;47.744;10.580;2023-09-19T14:00:41;13.17;;;1.10;;
4278;SDS011;2153;47.744;10.580;2023-09-19T14:03:09;11.50;;;1.13;;
4278;SDS011;2153;47.744;10.580;2023-09-19T14:05:36;13.30;;;1.00;;
4278;SDS011;2153;47.744;10.580;2023-09-19T14:08:03;11.00;;;1.00;;
4278;SDS011;2153;47.744;10.580;2023-09-19T14:10:30;11.40;;;1.07;;
4278;SDS011;2153;47.744;10.580;2023-09-19T14:12:57;11.60;;;1.30;;
4278;SDS011;2153;47.744;10.580;2023-09-19T14:15:24;12.50;;;1.20;;
4278;SDS011;2153;47.744;10.580;2023-09-19T14:17:54;10.67;;;0.90;;
4278;SDS011;2153;47.744;10.580;2023-09-19T14:20:23;11.10;;;1.20;;
4278;SDS011;2153;47.744;10.580;2023-09-19T14:22:51;11.33;;;1.00;;
4278;SDS011;2153;47.744;10.580;2023-09-19T14:25:18;10.93;;;1.00;;
4278;SDS011;2153;47.744;10.580;2023-09-19T14:27:46;11.07;;;0.80;;
4278;SDS011;2153;47.744;10.580;2023-09-19T14:30:13;10.90;;;0.93;;
4278;SDS011;2153;47.744;10.580;2023-09-19T14:32:39;11.80;;;1.00;;
4278;SDS011;2153;47.744;10.580;2023-09-19T14:35:07;16.07;;;1.00;;
4278;SDS011;2153;47.744;10.580;2023-09-19T14:37:36;13.30;;;0.90;;
4278;SDS011;2153;47.744;10.580;2023-09-19T14:40:05;10.53;;;0.60;;
4278;SDS011;2153;47.744;10.580;2023-09-19T14:42:34;11.70;;;1.20;;
4278;SDS011;2153;47.744;10.580;2023-09-19T14:45:03;10.77;;;1.00;;
4278;SDS011;2153;47.744;10.580;2023-09-19T14:47:31;11.57;;;0.87;;
4278;SDS011;2153;47.744;10.580;2023-09-19T14:49:59;12.97;;;1.33;;
4278;SDS011;2153;47.744;10.580;2023-09-19T14:52:26;12.40;;;0.97;;
4278;SDS011;2153;47.744;10.580;2023-09-19T14:54:54;10.80;;;0.90;;
4278;SDS011;2153;47.744;10.580;2023-09-19T14:57:21;10.80;;;0.90;;
4278;SDS011;2153;47.744;10.580;2023-09-19T14:59:49;12.23;;;1.00;;
4278;SDS011;2153;47.744;10.580;2023-09-19T15:02:16;11.60;;;0.80;;
4278;SDS011;2153;47.744;10.580;2023-09-19T15:04:44;10.73;;;0.73;;
4278;SDS011;2153;47.744;10.580;2023-09-19T15:07:11;10.60;;;0.90;;
4278;SDS011;2153;47.744;10.580;2023-09-19T15:09:39;11.00;;;0.97;;
4278;SDS011;2153;47.744;10.580;2023-09-19T15:12:08;16.93;;;1.40;;
4278;SDS011;2153;47.744;10.580;2023-09-19T15:14:35;11.30;;;1.10;;
4278;SDS011;2153;47.744;10.580;2023-09-19T15:17:02;11.57;;;1.00;;
4278;SDS011;2153;47.744;10.580;2023-09-19T15:19:29;11.70;;;1.20;;
4278;SDS011;2153;47.744;10.580;2023-09-19T15:21:55;10.60;;;0.90;;